Time;durP1;ratioP1;P1;durP2;ratioP2;P2;SDS_P1;SDS_P2;PMS_P1;PMS_P2;Temp;Humidity;BMP_temperature;BMP_pressure;BME280_temperature;BME280_humidity;BME280_pressure;Samples;Min_cycle;Max_cycle;Signal;HPM_P1;HPM_P2
2023/05/05 00:00:20;;;;;;;26.15;14.30;;;;;;;;;;2053576;29;20073;-90
2023/05/05 00:01:21;;;;;;;28.10;14.75;;;;;;;;;;2051484;29;20045;-88
2023/05/05 00:02:21;;;;;;;26.58;14.23;;;;;;;;;;2057895;28;20031;-89
2023/05/05 00:03:23;;;;;;;23.25;13.40;;;;;;;;;;2049091;29;20039;-91
2023/05/05 00:04:23;;;;;;;25.73;14.13;;;;;;;;;;2048463;28;20027;-87
2023/05/05 00:05:24;;;;;;;25.65;14.50;;;;;;;;;;2048293;29;20027;-88
2023/05/05 00:06:24;;;;;;;26.60;15.02;;;;;;;;;;2040108;29;20127;-88
2023/05/05 00:07:25;;;;;;;27.67;14.80;;;;;;;;;;2048575;29;20650;-87
2023/05/05 00:08:25;;;;;;;29.83;14.60;;;;;;;;;;2040402;29;20118;-89
2023/05/05 00:09:31;;;;;;;26.45;14.60;;;;;;;;;;2048255;28;20037;-89
2023/05/05 00:10:31;;;;;;;27.65;14.60;;;;;;;;;;2059490;28;20062;-89
2023/05/05 00:11:32;;;;;;;25.58;14.05;;;;;;;;;;2048587;29;20047;-89
2023/05/05 00:12:32;;;;;;;29.65;14.40;;;;;;;;;;2048329;29;20035;-89
2023/05/05 00:13:33;;;;;;;26.23;13.95;;;;;;;;;;2058069;28;20031;-88
2023/05/05 00:14:33;;;;;;;26.85;13.85;;;;;;;;;;2064047;28;20023;-88
2023/05/05 00:15:34;;;;;;;27.55;14.85;;;;;;;;;;2057729;29;20087;-88
2023/05/05 00:16:34;;;;;;;28.27;14.07;;;;;;;;;;2049939;28;20041;-88
2023/05/05 00:17:35;;;;;;;26.48;14.45;;;;;;;;;;2057988;29;20023;-88
2023/05/05 00:18:36;;;;;;;28.00;14.02;;;;;;;;;;2057001;29;20045;-88
2023/05/05 00:19:36;;;;;;;25.77;13.70;;;;;;;;;;2045850;29;20067;-88
2023/05/05 00:20:37;;;;;;;24.90;14.27;;;;;;;;;;2045936;29;20534;-88
2023/05/05 00:21:37;;;;;;;26.42;14.02;;;;;;;;;;2041165;29;20055;-88
2023/05/05 00:22:37;;;;;;;27.70;14.88;;;;;;;;;;2040733;29;20058;-88
2023/05/05 00:23:38;;;;;;;29.65;14.70;;;;;;;;;;2048564;29;20033;-88
2023/05/05 00:24:38;;;;;;;26.38;14.40;;;;;;;;;;2056863;28;20037;-88
2023/05/05 00:25:39;;;;;;;28.98;15.00;;;;;;;;;;2047619;28;20035;-88
2023/05/05 00:26:39;;;;;;;28.55;14.45;;;;;;;;;;2047922;29;20360;-88
2023/05/05 00:27:40;;;;;;;30.73;14.85;;;;;;;;;;2056379;28;20106;-87
2023/05/05 00:28:40;;;;;;;26.73;14.32;;;;;;;;;;2057139;28;20034;-87
2023/05/05 00:29:40;;;;;;;28.58;14.68;;;;;;;;;;2058697;28;20054;-86
2023/05/05 00:30:41;;;;;;;27.00;14.27;;;;;;;;;;2049143;29;20023;-89
2023/05/05 00:31:41;;;;;;;25.20;14.00;;;;;;;;;;2048197;29;20050;-88
2023/05/05 00:32:42;;;;;;;25.60;14.38;;;;;;;;;;2056795;28;20093;-87
2023/05/05 00:33:42;;;;;;;28.45;14.18;;;;;;;;;;2047755;29;20038;-88
2023/05/05 00:34:42;;;;;;;28.85;15.07;;;;;;;;;;2040113;29;20036;-89
2023/05/05 00:35:43;;;;;;;28.17;15.02;;;;;;;;;;2039957;29;20095;-88
2023/05/05 00:36:43;;;;;;;;;;;;;;;;;;1699551;29;10001597;-87
2023/05/05 00:37:45;;;;;;;27.93;14.73;;;;;;;;;;2047935;29;19914;-89
2023/05/05 00:38:45;;;;;;;30.88;15.07;;;;;;;;;;2056717;28;20054;-89
2023/05/05 00:39:45;;;;;;;25.17;14.15;;;;;;;;;;1705319;28;10250977;-88
2023/05/05 00:40:46;;;;;;;26.15;13.93;;;;;;;;;;2047668;29;20066;-89
2023/05/05 00:41:46;;;;;;;25.60;13.45;;;;;;;;;;2048091;29;20087;-89
2023/05/05 00:42:49;;;;;;;31.75;15.00;;;;;;;;;;2047599;29;20558;-89
2023/05/05 00:43:50;;;;;;;25.42;14.52;;;;;;;;;;2048114;28;20031;-89
2023/05/05 00:44:50;;;;;;;29.75;15.60;;;;;;;;;;2056529;28;20141;-89
2023/05/05 00:46:00;;;;;;;28.27;13.80;;;;;;;;;;2056612;28;20039;-89
2023/05/05 00:47:00;;;;;;;29.08;13.93;;;;;;;;;;2047657;29;20031;-89
2023/05/05 00:48:00;;;;;;;24.80;13.48;;;;;;;;;;2047855;29;20054;-89
2023/05/05 00:49:01;;;;;;;24.95;13.10;;;;;;;;;;2056987;28;20682;-88
2023/05/05 00:50:08;;;;;;;23.83;13.32;;;;;;;;;;2057072;28;20466;-89
2023/05/05 00:51:09;;;;;;;24.52;13.48;;;;;;;;;;2056444;28;20042;-88
2023/05/05 00:52:10;;;;;;;24.52;13.02;;;;;;;;;;2047568;29;20035;-88
2023/05/05 00:53:11;;;;;;;23.05;13.15;;;;;;;;;;2047645;28;20586;-88
2023/05/05 00:54:11;;;;;;;22.92;12.52;;;;;;;;;;2056537;28;20038;-89
2023/05/05 00:55:12;;;;;;;23.67;12.68;;;;;;;;;;2047531;29;20031;-88
2023/05/05 00:56:13;;;;;;;26.05;14.00;;;;;;;;;;2047621;29;20481;-88
2023/05/05 00:57:13;;;;;;;24.23;13.65;;;;;;;;;;2047471;29;20184;-90
2023/05/05 00:58:14;;;;;;;23.30;13.18;;;;;;;;;;2047849;29;20521;-89
2023/05/05 00:59:14;;;;;;;29.27;14.20;;;;;;;;;;2047742;29;20502;-88
2023/05/05 01:00:15;;;;;;;28.42;12.95;;;;;;;;;;2040097;29;20498;-89
2023/05/05 01:01:16;;;;;;;26.38;13.52;;;;;;;;;;2047764;29;20063;-88
2023/05/05 01:02:17;;;;;;;27.55;14.27;;;;;;;;;;2056170;28;20023;-88
2023/05/05 01:03:18;;;;;;;29.98;14.07;;;;;;;;;;2056609;28;20026;-88
2023/05/05 01:04:18;;;;;;;25.73;14.18;;;;;;;;;;2056628;28;20118;-88
2023/05/05 01:05:21;;;;;;;29.00;14.55;;;;;;;;;;2056595;28;20462;-88
2023/05/05 01:06:43;;;;;;;26.92;14.27;;;;;;;;;;2056653;28;20031;-88
2023/05/05 01:08:01;;;;;;;26.35;13.80;;;;;;;;;;2047853;29;20031;-88
2023/05/05 01:09:37;;;;;;;28.27;15.05;;;;;;;;;;2042258;29;20035;-89
2023/05/05 01:10:47;;;;;;;25.25;13.60;;;;;;;;;;2053014;28;20035;-89
2023/05/05 01:11:58;;;;;;;27.08;13.75;;;;;;;;;;2048352;29;20031;-89
2023/05/05 01:13:44;;;;;;;24.10;13.48;;;;;;;;;;2050107;28;20098;-89
2023/05/05 01:14:51;;;;;;;27.15;14.50;;;;;;;;;;2043995;29;20511;-89
2023/05/05 01:16:09;;;;;;;26.25;13.15;;;;;;;;;;2040852;29;20091;-89
2023/05/05 01:17:16;;;;;;;26.40;13.77;;;;;;;;;;1701521;29;10003214;-89
2023/05/05 01:18:37;;;;;;;25.55;14.25;;;;;;;;;;2047631;29;20023;-89
2023/05/05 01:19:46;;;;;;;25.90;13.80;;;;;;;;;;2047512;29;20529;-89
2023/05/05 01:21:07;;;;;;;26.38;13.57;;;;;;;;;;2048991;28;20051;-88
2023/05/05 01:22:12;;;;;;;26.60;13.57;;;;;;;;;;2057614;28;20510;-87
2023/05/05 01:23:47;;;;;;;25.77;12.57;;;;;;;;;;2055111;29;20043;-87
2023/05/05 01:25:25;;;;;;;26.48;13.73;;;;;;;;;;2052437;28;20030;-90
2023/05/05 01:26:44;;;;;;;25.27;13.23;;;;;;;;;;2018795;28;20124;-90
2023/05/05 01:28:07;;;;;;;27.20;13.88;;;;;;;;;;2056233;28;20038;-89
2023/05/05 01:29:38;;;;;;;24.13;12.82;;;;;;;;;;2056104;28;20522;-89
2023/05/05 01:30:57;;;;;;;22.30;12.55;;;;;;;;;;2047647;29;20067;-89
2023/05/05 01:32:06;;;;;;;27.88;12.98;;;;;;;;;;2047690;29;20031;-89
2023/05/05 01:33:13;;;;;;;26.20;14.30;;;;;;;;;;2047554;29;20023;-89
2023/05/05 01:34:15;;;;;;;27.38;13.57;;;;;;;;;;2047192;29;20030;-89
2023/05/05 01:35:20;;;;;;;26.10;13.40;;;;;;;;;;2047507;28;20459;-88
2023/05/05 01:36:27;;;;;;;28.83;14.85;;;;;;;;;;2047616;29;20019;-88
2023/05/05 01:37:49;;;;;;;25.17;13.25;;;;;;;;;;2046562;29;20188;-88
2023/05/05 01:38:55;;;;;;;28.02;14.23;;;;;;;;;;2047593;29;20102;-88
2023/05/05 01:40:00;;;;;;;24.15;13.48;;;;;;;;;;2040037;29;20399;-89
2023/05/05 01:41:09;;;;;;;26.08;14.63;;;;;;;;;;2047317;29;20481;-90
2023/05/05 01:42:13;;;;;;;24.77;12.70;;;;;;;;;;2048474;28;20034;-89
2023/05/05 01:43:16;;;;;;;23.30;13.35;;;;;;;;;;2047021;29;20471;-89
2023/05/05 01:44:18;;;;;;;22.35;12.90;;;;;;;;;;2039627;29;20118;-88
2023/05/05 01:45:21;;;;;;;20.50;11.98;;;;;;;;;;2047149;29;20058;-88
2023/05/05 01:46:23;;;;;;;21.70;13.27;;;;;;;;;;2047581;28;20544;-87
2023/05/05 01:47:23;;;;;;;22.33;13.13;;;;;;;;;;2056050;28;20068;-88
2023/05/05 01:48:24;;;;;;;26.88;12.68;;;;;;;;;;2047408;29;20231;-88
2023/05/05 01:49:26;;;;;;;22.48;13.00;;;;;;;;;;2041201;29;20194;-86
2023/05/05 01:50:28;;;;;;;23.30;13.23;;;;;;;;;;2050260;29;20121;-87
2023/05/05 01:51:29;;;;;;;24.33;12.35;;;;;;;;;;2050435;28;20154;-87
2023/05/05 01:52:31;;;;;;;22.83;12.73;;;;;;;;;;2056709;28;20046;-87
2023/05/05 01:53:33;;;;;;;23.33;12.85;;;;;;;;;;2047496;29;20080;-87
2023/05/05 01:54:34;;;;;;;22.75;12.45;;;;;;;;;;2047690;28;20031;-88
2023/05/05 01:55:38;;;;;;;25.02;12.63;;;;;;;;;;2055915;28;20030;-88
2023/05/05 01:56:40;;;;;;;23.60;13.02;;;;;;;;;;2047212;29;20031;-87
2023/05/05 01:57:41;;;;;;;25.48;13.27;;;;;;;;;;2047680;28;20034;-87
2023/05/05 01:58:43;;;;;;;25.30;13.90;;;;;;;;;;2056488;28;20134;-87
2023/05/05 01:59:44;;;;;;;24.77;13.63;;;;;;;;;;2047653;29;20027;-88
2023/05/05 02:00:45;;;;;;;25.33;13.65;;;;;;;;;;2047481;29;20054;-88
2023/05/05 02:01:47;;;;;;;25.63;14.05;;;;;;;;;;2047553;29;20177;-88
2023/05/05 02:02:48;;;;;;;23.23;12.70;;;;;;;;;;2039495;29;20039;-88
2023/05/05 02:03:50;;;;;;;24.95;13.80;;;;;;;;;;2039491;29;20043;-88
2023/05/05 02:04:53;;;;;;;27.88;12.73;;;;;;;;;;2047361;28;20397;-88
2023/05/05 02:05:54;;;;;;;22.70;13.95;;;;;;;;;;2047446;29;20518;-87
2023/05/05 02:06:55;;;;;;;29.05;13.75;;;;;;;;;;2039652;29;20039;-87
2023/05/05 02:07:58;;;;;;;27.48;14.20;;;;;;;;;;2047332;28;20038;-88
2023/05/05 02:09:00;;;;;;;24.73;13.18;;;;;;;;;;2047170;29;20023;-88
2023/05/05 02:10:01;;;;;;;23.20;13.00;;;;;;;;;;2039523;29;20028;-88
2023/05/05 02:11:03;;;;;;;28.77;14.50;;;;;;;;;;2047361;29;20122;-87
2023/05/05 02:12:05;;;;;;;26.80;14.25;;;;;;;;;;2047111;29;20047;-87
2023/05/05 02:13:06;;;;;;;26.80;15.18;;;;;;;;;;2047903;28;20411;-87
2023/05/05 02:14:09;;;;;;;26.83;13.52;;;;;;;;;;2057658;28;20371;-86
2023/05/05 02:15:10;;;;;;;25.17;13.85;;;;;;;;;;2050051;29;20447;-88
2023/05/05 02:16:12;;;;;;;25.75;13.93;;;;;;;;;;2047412;29;20408;-87
2023/05/05 02:17:14;;;;;;;28.15;15.15;;;;;;;;;;2047130;29;20029;-88
2023/05/05 02:18:18;;;;;;;27.40;14.13;;;;;;;;;;2047366;28;20146;-87
2023/05/05 02:19:23;;;;;;;30.00;14.73;;;;;;;;;;2048157;29;20027;-88
2023/05/05 02:20:24;;;;;;;28.70;14.57;;;;;;;;;;2049086;29;20030;-88
2023/05/05 02:21:24;;;;;;;27.38;13.05;;;;;;;;;;2048373;28;20023;-88
2023/05/05 02:22:25;;;;;;;28.70;14.43;;;;;;;;;;2064092;28;20022;-87
2023/05/05 02:23:25;;;;;;;25.38;14.25;;;;;;;;;;2057630;28;20035;-88
2023/05/05 02:24:27;;;;;;;28.15;14.50;;;;;;;;;;2049985;28;20016;-88
2023/05/05 02:25:39;;;;;;;31.25;14.88;;;;;;;;;;2055727;28;20527;-88
2023/05/05 02:26:42;;;;;;;25.02;13.93;;;;;;;;;;2060158;28;20398;-87
2023/05/05 02:27:47;;;;;;;25.98;13.65;;;;;;;;;;1797168;29;10090331;-88
2023/05/05 02:29:01;;;;;;;25.88;13.10;;;;;;;;;;2040901;29;20249;-87
2023/05/05 02:30:11;;;;;;;23.95;13.18;;;;;;;;;;2053393;28;20045;-88
2023/05/05 02:31:15;;;;;;;24.95;13.40;;;;;;;;;;2049624;29;20086;-88
2023/05/05 02:32:38;;;;;;;25.10;12.93;;;;;;;;;;2043028;29;20036;-88
2023/05/05 02:33:40;;;;;;;24.00;12.23;;;;;;;;;;2052361;28;20045;-88
2023/05/05 02:34:42;;;;;;;25.65;12.50;;;;;;;;;;2058207;28;20022;-88
2023/05/05 02:35:45;;;;;;;26.52;12.55;;;;;;;;;;2047791;29;20304;-90
2023/05/05 02:36:49;;;;;;;23.75;12.52;;;;;;;;;;2045880;28;20038;-89
2023/05/05 02:37:55;;;;;;;22.95;12.98;;;;;;;;;;2047064;29;20263;-88
2023/05/05 02:39:00;;;;;;;21.30;12.02;;;;;;;;;;2047897;28;20555;-88
2023/05/05 02:40:04;;;;;;;21.00;12.70;;;;;;;;;;2056691;28;20553;-88
2023/05/05 02:41:08;;;;;;;26.15;12.90;;;;;;;;;;2054255;29;20023;-89
2023/05/05 02:42:11;;;;;;;22.10;12.20;;;;;;;;;;2048998;29;20015;-88
2023/05/05 02:43:18;;;;;;;25.88;12.60;;;;;;;;;;2056716;28;20023;-87
2023/05/05 02:44:22;;;;;;;21.05;11.90;;;;;;;;;;2050929;29;20021;-87
2023/05/05 02:45:25;;;;;;;23.77;12.75;;;;;;;;;;2049067;28;20168;-87
2023/05/05 02:46:27;;;;;;;23.75;13.45;;;;;;;;;;2056615;28;20034;-88
2023/05/05 02:47:34;;;;;;;26.17;12.98;;;;;;;;;;2047456;29;20035;-88
2023/05/05 02:48:34;;;;;;;22.98;12.52;;;;;;;;;;2048077;28;20091;-89
2023/05/05 02:49:35;;;;;;;23.25;12.60;;;;;;;;;;2048176;29;20038;-88
2023/05/05 02:50:36;;;;;;;23.52;12.85;;;;;;;;;;2048263;28;20027;-87
2023/05/05 02:51:36;;;;;;;20.75;11.43;;;;;;;;;;2055722;28;20388;-88
2023/05/05 02:52:37;;;;;;;20.50;11.15;;;;;;;;;;2056001;28;20026;-87
2023/05/05 02:53:38;;;;;;;23.55;12.43;;;;;;;;;;2047526;29;20027;-87
2023/05/05 02:54:39;;;;;;;25.45;12.75;;;;;;;;;;2039708;29;20023;-88
2023/05/05 02:56:14;;;;;;;23.20;11.43;;;;;;;;;;2048298;28;20023;-89
2023/05/05 02:57:18;;;;;;;21.67;11.30;;;;;;;;;;2019288;29;20085;-87
2023/05/05 02:58:29;;;;;;;20.95;10.25;;;;;;;;;;2051573;28;20086;-88
2023/05/05 02:59:38;;;;;;;21.63;10.73;;;;;;;;;;2060100;28;20487;-86
2023/05/05 03:00:56;;;;;;;19.65;10.63;;;;;;;;;;2057495;28;20071;-87
2023/05/05 03:02:14;;;;;;;20.40;10.55;;;;;;;;;;2057533;28;20406;-87
2023/05/05 03:03:38;;;;;;;17.10;10.13;;;;;;;;;;2059775;28;20463;-87
2023/05/05 03:04:42;;;;;;;20.67;11.60;;;;;;;;;;2059588;28;20031;-86
2023/05/05 03:06:01;;;;;;;21.02;11.88;;;;;;;;;;2060724;28;20031;-87
2023/05/05 03:07:10;;;;;;;23.58;11.77;;;;;;;;;;2051514;29;20618;-86
2023/05/05 03:08:25;;;;;;;19.48;10.73;;;;;;;;;;2053007;28;20095;-87
2023/05/05 03:09:46;;;;;;;19.73;11.95;;;;;;;;;;2053365;29;20027;-87
2023/05/05 03:11:12;;;;;;;19.38;10.82;;;;;;;;;;2056746;28;20099;-87
2023/05/05 03:12:18;;;;;;;22.40;11.25;;;;;;;;;;2055661;28;20152;-87
2023/05/05 03:13:22;;;;;;;20.55;11.45;;;;;;;;;;2055541;28;20015;-87
2023/05/05 03:14:26;;;;;;;22.02;11.57;;;;;;;;;;2055390;28;20018;-88
2023/05/05 03:15:33;;;;;;;20.75;11.50;;;;;;;;;;2055423;28;20080;-87
2023/05/05 03:16:35;;;;;;;21.30;11.02;;;;;;;;;;2046771;29;20355;-88
2023/05/05 03:17:36;;;;;;;21.38;10.93;;;;;;;;;;2046784;28;20035;-89
2023/05/05 03:18:39;;;;;;;25.90;12.60;;;;;;;;;;2055417;28;20102;-88
2023/05/05 03:19:41;;;;;;;19.60;13.00;;;;;;;;;;2046819;29;20019;-89
2023/05/05 03:20:42;;;;;;;27.10;13.07;;;;;;;;;;2039158;29;20028;-88
2023/05/05 03:21:43;;;;;;;23.20;12.57;;;;;;;;;;2046921;28;20507;-87
2023/05/05 03:22:44;;;;;;;20.58;11.43;;;;;;;;;;2046671;29;20034;-88
2023/05/05 03:23:44;;;;;;;21.50;11.18;;;;;;;;;;2046946;29;20065;-87
2023/05/05 03:24:49;;;;;;;28.50;11.60;;;;;;;;;;2055794;28;20035;-88
2023/05/05 03:25:50;;;;;;;24.17;12.48;;;;;;;;;;2046825;29;20039;-87
2023/05/05 03:26:50;;;;;;;25.27;12.65;;;;;;;;;;2046760;28;20059;-88
2023/05/05 03:27:51;;;;;;;23.70;12.63;;;;;;;;;;2046737;29;20352;-88
2023/05/05 03:28:51;;;;;;;23.75;12.48;;;;;;;;;;2046621;29;20031;-88
2023/05/05 03:29:52;;;;;;;27.35;13.23;;;;;;;;;;2046761;29;20404;-89
2023/05/05 03:30:53;;;;;;;24.15;13.43;;;;;;;;;;2046668;29;20223;-88
2023/05/05 03:31:53;;;;;;;25.70;13.00;;;;;;;;;;2038888;29;20498;-88
2023/05/05 03:32:53;;;;;;;25.20;13.20;;;;;;;;;;2046785;29;20478;-88
2023/05/05 03:33:54;;;;;;;26.77;13.57;;;;;;;;;;2049552;29;20328;-87
2023/05/05 03:34:55;;;;;;;32.47;15.02;;;;;;;;;;2046667;29;20586;-88
2023/05/05 03:35:56;;;;;;;27.23;14.13;;;;;;;;;;2055304;28;20037;-87
2023/05/05 03:36:56;;;;;;;26.27;13.98;;;;;;;;;;2046418;29;20042;-87
2023/05/05 03:37:57;;;;;;;25.10;14.02;;;;;;;;;;2038700;29;20057;-88
2023/05/05 03:38:57;;;;;;;26.15;14.40;;;;;;;;;;2046767;29;20082;-88
2023/05/05 03:39:58;;;;;;;26.27;13.77;;;;;;;;;;2055535;28;20027;-87
2023/05/05 03:41:04;;;;;;;27.90;15.02;;;;;;;;;;2046897;29;20023;-89
2023/05/05 03:42:04;;;;;;;27.38;15.35;;;;;;;;;;2041650;29;20418;-87
2023/05/05 03:43:05;;;;;;;29.27;15.65;;;;;;;;;;2040417;29;20122;-88
2023/05/05 03:44:06;;;;;;;26.92;14.80;;;;;;;;;;2048524;29;20050;-88
2023/05/05 03:45:07;;;;;;;26.33;13.77;;;;;;;;;;2046846;29;20183;-88
2023/05/05 03:46:09;;;;;;;28.25;15.35;;;;;;;;;;2046948;29;20043;-88
2023/05/05 03:47:09;;;;;;;29.63;14.43;;;;;;;;;;2046812;29;20031;-88
2023/05/05 03:48:10;;;;;;;27.17;14.23;;;;;;;;;;2038939;29;20577;-87
2023/05/05 03:49:10;;;;;;;30.67;16.05;;;;;;;;;;2038764;29;20110;-88
2023/05/05 03:50:10;;;;;;;26.55;14.80;;;;;;;;;;2046658;29;20028;-87
2023/05/05 03:51:12;;;;;;;31.15;16.70;;;;;;;;;;2046910;29;20067;-87
2023/05/05 03:52:12;;;;;;;31.83;16.05;;;;;;;;;;2055319;28;20034;-87
2023/05/05 03:53:13;;;;;;;30.13;15.02;;;;;;;;;;2046837;29;20383;-88
2023/05/05 03:54:16;;;;;;;29.95;16.50;;;;;;;;;;2047104;28;20113;-88
2023/05/05 03:55:17;;;;;;;36.20;16.63;;;;;;;;;;2046774;29;20650;-88
2023/05/05 03:56:18;;;;;;;31.83;18.10;;;;;;;;;;2047128;28;20106;-87
2023/05/05 03:57:18;;;;;;;33.55;17.42;;;;;;;;;;2055383;28;20403;-87
2023/05/05 03:58:19;;;;;;;32.55;17.25;;;;;;;;;;2047104;29;20515;-87
2023/05/05 03:59:19;;;;;;;37.67;17.90;;;;;;;;;;2047222;28;20122;-87
2023/05/05 04:00:20;;;;;;;35.65;17.80;;;;;;;;;;2055539;28;20026;-88
2023/05/05 04:01:22;;;;;;;35.70;17.52;;;;;;;;;;2048219;29;20110;-88
2023/05/05 04:02:22;;;;;;;31.52;17.48;;;;;;;;;;2048215;28;20035;-87
2023/05/05 04:03:22;;;;;;;34.78;17.40;;;;;;;;;;2048264;29;20019;-87
2023/05/05 04:04:23;;;;;;;34.75;17.17;;;;;;;;;;2048202;29;20023;-88
2023/05/05 04:05:24;;;;;;;36.40;17.45;;;;;;;;;;2047995;29;20033;-89
2023/05/05 04:06:25;;;;;;;35.42;17.95;;;;;;;;;;2040052;29;20118;-87
2023/05/05 04:07:25;;;;;;;36.60;17.60;;;;;;;;;;2040000;29;20373;-87
2023/05/05 04:08:25;;;;;;;32.97;16.85;;;;;;;;;;2047954;29;20031;-88
2023/05/05 04:09:26;;;;;;;37.58;19.20;;;;;;;;;;2056808;28;20398;-88
2023/05/05 04:10:26;;;;;;;34.83;17.70;;;;;;;;;;2056791;28;20034;-88
2023/05/05 04:11:27;;;;;;;33.95;17.52;;;;;;;;;;2047882;29;20027;-87
2023/05/05 04:12:27;;;;;;;36.97;18.67;;;;;;;;;;2047916;29;20031;-87
2023/05/05 04:13:28;;;;;;;32.00;16.58;;;;;;;;;;2048584;29;20011;-88
2023/05/05 04:14:28;;;;;;;34.67;18.35;;;;;;;;;;2056917;28;20494;-88
2023/05/05 04:15:29;;;;;;;38.78;18.05;;;;;;;;;;2056689;28;20031;-88
2023/05/05 04:16:31;;;;;;;34.17;17.02;;;;;;;;;;2048067;29;20066;-88
2023/05/05 04:17:31;;;;;;;36.20;17.95;;;;;;;;;;2040270;29;20059;-88
2023/05/05 04:18:32;;;;;;;34.42;17.52;;;;;;;;;;2048099;29;20038;-88
2023/05/05 04:19:32;;;;;;;33.42;16.90;;;;;;;;;;2056954;28;20101;-88
2023/05/05 04:20:34;;;;;;;34.03;17.92;;;;;;;;;;2048021;29;20086;-88
2023/05/05 04:21:34;;;;;;;34.08;17.30;;;;;;;;;;2040390;29;20181;-89
2023/05/05 04:22:35;;;;;;;32.17;16.80;;;;;;;;;;2048239;28;20031;-89
2023/05/05 04:23:36;;;;;;;32.30;17.65;;;;;;;;;;2056519;28;20062;-88
2023/05/05 04:24:36;;;;;;;33.75;17.13;;;;;;;;;;2056679;28;20041;-88
2023/05/05 04:25:36;;;;;;;36.78;17.95;;;;;;;;;;2047919;29;20479;-88
2023/05/05 04:26:37;;;;;;;32.35;17.05;;;;;;;;;;2048087;29;20459;-88
2023/05/05 04:27:38;;;;;;;32.63;17.55;;;;;;;;;;2056572;28;20037;-88
2023/05/05 04:28:38;;;;;;;31.23;17.52;;;;;;;;;;2056804;28;20035;-88
2023/05/05 04:29:39;;;;;;;28.17;16.40;;;;;;;;;;2047919;29;20086;-88
2023/05/05 04:30:39;;;;;;;32.17;17.13;;;;;;;;;;2047858;29;20031;-87
2023/05/05 04:31:40;;;;;;;30.95;17.13;;;;;;;;;;2056563;28;20101;-88
2023/05/05 04:32:40;;;;;;;32.30;17.85;;;;;;;;;;2047801;29;20042;-88
2023/05/05 04:33:40;;;;;;;32.25;15.80;;;;;;;;;;1697217;29;10264512;-89
2023/05/05 04:34:41;;;;;;;35.30;16.52;;;;;;;;;;2048295;29;20515;-88
2023/05/05 04:35:45;;;;;;;34.47;16.60;;;;;;;;;;2048034;29;20098;-88
2023/05/05 04:36:45;;;;;;;32.88;17.85;;;;;;;;;;2049496;28;20023;-93
2023/05/05 04:37:45;;;;;;;32.00;17.38;;;;;;;;;;2049679;29;20035;-93
2023/05/05 04:38:46;;;;;;;34.08;18.05;;;;;;;;;;2049265;29;20134;-93
2023/05/05 04:39:46;;;;;;;38.90;18.58;;;;;;;;;;2049299;29;20039;-93
2023/05/05 04:40:47;;;;;;;32.75;16.15;;;;;;;;;;2048982;29;20530;-92
2023/05/05 04:41:47;;;;;;;29.40;17.15;;;;;;;;;;1706691;29;10001651;-93
2023/05/05 04:42:48;;;;;;;35.83;17.58;;;;;;;;;;2040907;29;20083;-93
2023/05/05 04:43:48;;;;;;;33.70;17.35;;;;;;;;;;2040815;29;20031;-92
2023/05/05 04:44:48;;;;;;;35.65;18.35;;;;;;;;;;2040507;29;20055;-92
2023/05/05 04:45:53;;;;;;;33.72;17.60;;;;;;;;;;2040941;29;20039;-93
2023/05/05 04:46:53;;;;;;;37.08;18.52;;;;;;;;;;2041292;29;20032;-93
2023/05/05 04:47:54;;;;;;;34.45;18.17;;;;;;;;;;2045240;29;20018;-92
2023/05/05 04:48:54;;;;;;;37.13;18.75;;;;;;;;;;2051178;28;20019;-94
2023/05/05 04:49:55;;;;;;;35.15;17.65;;;;;;;;;;2059442;28;20031;-94
2023/05/05 04:50:55;;;;;;;34.33;18.10;;;;;;;;;;2058731;28;20027;-92
2023/05/05 04:51:56;;;;;;;38.17;18.65;;;;;;;;;;2045182;29;20443;-93
2023/05/05 04:52:56;;;;;;;41.33;19.65;;;;;;;;;;2051371;29;20031;-92
2023/05/05 04:53:57;;;;;;;39.88;19.58;;;;;;;;;;2042053;29;20031;-94
2023/05/05 04:54:58;;;;;;;35.88;17.83;;;;;;;;;;2041711;29;20095;-92
2023/05/05 04:56:00;;;;;;;35.13;18.38;;;;;;;;;;2049437;29;20143;-93
2023/05/05 04:57:01;;;;;;;39.40;19.42;;;;;;;;;;2041604;29;20403;-91
2023/05/05 04:58:02;;;;;;;39.17;19.48;;;;;;;;;;2040590;29;20027;-93
2023/05/05 04:59:03;;;;;;;34.72;19.20;;;;;;;;;;2041818;29;20036;-93
2023/05/05 05:00:05;;;;;;;35.42;18.08;;;;;;;;;;2049015;29;20043;-93
2023/05/05 05:01:05;;;;;;;37.55;19.13;;;;;;;;;;2041178;29;20028;-92
2023/05/05 05:02:05;;;;;;;38.42;18.63;;;;;;;;;;2041852;29;20126;-92
2023/05/05 05:03:07;;;;;;;37.17;18.30;;;;;;;;;;2041584;29;20106;-92
2023/05/05 05:04:09;;;;;;;37.20;19.80;;;;;;;;;;2049042;28;20027;-92
2023/05/05 05:05:10;;;;;;;39.30;20.00;;;;;;;;;;2049044;29;20109;-93
2023/05/05 05:06:12;;;;;;;38.88;19.20;;;;;;;;;;1740132;28;10281897;-93
2023/05/05 05:07:14;;;;;;;38.22;20.08;;;;;;;;;;2051522;29;20339;-92
2023/05/05 05:08:15;;;;;;;33.53;18.50;;;;;;;;;;2051222;28;20015;-91
2023/05/05 05:09:15;;;;;;;39.63;18.67;;;;;;;;;;2047774;29;20036;-91
2023/05/05 05:10:17;;;;;;;36.72;18.38;;;;;;;;;;2043652;29;20095;-91
2023/05/05 05:11:17;;;;;;;36.45;19.10;;;;;;;;;;2042267;29;20163;-94
2023/05/05 05:12:17;;;;;;;39.45;18.85;;;;;;;;;;2050398;29;20019;-94
2023/05/05 05:13:18;;;;;;;34.95;18.33;;;;;;;;;;2049711;29;20086;-94
2023/05/05 05:14:18;;;;;;;31.02;16.90;;;;;;;;;;2048132;29;20146;-92
2023/05/05 05:15:19;;;;;;;35.90;18.15;;;;;;;;;;2040876;29;20028;-93
2023/05/05 05:16:20;;;;;;;36.22;17.25;;;;;;;;;;2048911;29;20110;-93
2023/05/05 05:17:21;;;;;;;34.95;17.92;;;;;;;;;;2048701;29;20027;-93
2023/05/05 05:18:21;;;;;;;32.10;16.90;;;;;;;;;;2041840;29;20076;-92
2023/05/05 05:19:22;;;;;;;33.08;17.60;;;;;;;;;;2048761;29;20045;-93
2023/05/05 05:20:22;;;;;;;29.77;16.58;;;;;;;;;;2048759;29;20027;-94
2023/05/05 05:21:23;;;;;;;31.67;16.35;;;;;;;;;;2048857;29;20023;-94
2023/05/05 05:22:23;;;;;;;28.33;15.63;;;;;;;;;;2040961;29;20016;-93
2023/05/05 05:23:24;;;;;;;28.00;16.00;;;;;;;;;;2040643;29;20031;-94
2023/05/05 05:24:25;;;;;;;29.88;16.27;;;;;;;;;;2040834;29;20053;-93
2023/05/05 05:25:25;;;;;;;31.08;15.45;;;;;;;;;;2048652;28;20478;-92
2023/05/05 05:26:26;;;;;;;28.05;15.40;;;;;;;;;;2048501;29;20122;-92
2023/05/05 05:27:26;;;;;;;30.58;14.85;;;;;;;;;;2048532;28;20031;-91
2023/05/05 05:28:27;;;;;;;30.85;15.45;;;;;;;;;;2048397;29;20117;-92
2023/05/05 05:29:27;;;;;;;30.42;16.10;;;;;;;;;;2040724;29;20023;-91
2023/05/05 05:30:28;;;;;;;28.27;16.02;;;;;;;;;;2040250;29;20563;-91
2023/05/05 05:31:28;;;;;;;30.88;15.77;;;;;;;;;;2040926;29;20027;-93
2023/05/05 05:32:28;;;;;;;26.15;14.93;;;;;;;;;;2041025;29;20024;-94
2023/05/05 05:33:29;;;;;;;26.40;15.15;;;;;;;;;;2049073;29;20110;-92
2023/05/05 05:34:29;;;;;;;28.67;15.40;;;;;;;;;;2051682;29;20555;-91
2023/05/05 05:35:30;;;;;;;28.48;15.15;;;;;;;;;;2042446;29;20028;-91
2023/05/05 05:36:30;;;;;;;31.83;16.92;;;;;;;;;;2042228;29;20062;-92
2023/05/05 05:37:31;;;;;;;29.08;15.65;;;;;;;;;;2048973;29;20407;-96
2023/05/05 05:38:32;;;;;;;31.75;16.00;;;;;;;;;;2049077;29;20023;-94
2023/05/05 05:39:36;;;;;;;34.47;17.30;;;;;;;;;;2048377;29;20023;-94
2023/05/05 05:40:37;;;;;;;32.10;17.05;;;;;;;;;;2042719;29;20039;-94
2023/05/05 05:41:37;;;;;;;32.50;17.20;;;;;;;;;;2044405;29;20027;-91
2023/05/05 05:42:40;;;;;;;34.25;17.20;;;;;;;;;;2054779;29;20037;-95
2023/05/05 05:43:44;;;;;;;28.13;16.85;;;;;;;;;;2057803;28;20108;-92
2023/05/05 05:44:46;;;;;;;31.77;17.52;;;;;;;;;;2049059;29;20081;-94
2023/05/05 05:45:46;;;;;;;31.40;16.50;;;;;;;;;;2040903;29;20399;-94
2023/05/05 05:46:47;;;;;;;29.35;15.07;;;;;;;;;;2041486;29;20061;-95
2023/05/05 05:47:48;;;;;;;27.98;15.48;;;;;;;;;;2040943;29;20032;-94
2023/05/05 05:48:48;;;;;;;29.17;14.10;;;;;;;;;;2049078;29;20487;-95
2023/05/05 05:49:52;;;;;;;26.25;14.25;;;;;;;;;;2049735;29;20097;-95
2023/05/05 05:50:53;;;;;;;23.58;13.85;;;;;;;;;;2048641;29;20027;-95
2023/05/05 05:51:53;;;;;;;22.80;13.85;;;;;;;;;;2051303;28;20070;-94
2023/05/05 05:52:54;;;;;;;23.33;14.07;;;;;;;;;;2051032;29;20186;-93
2023/05/05 05:53:55;;;;;;;24.70;14.15;;;;;;;;;;2041597;29;20043;-94
2023/05/05 05:54:55;;;;;;;26.50;14.18;;;;;;;;;;2041129;29;20076;-95
2023/05/05 05:55:56;;;;;;;23.17;13.98;;;;;;;;;;2040927;29;20525;-94
2023/05/05 05:56:56;;;;;;;25.23;12.98;;;;;;;;;;2048765;29;20050;-94
2023/05/05 05:57:57;;;;;;;25.65;14.02;;;;;;;;;;2056517;28;20487;-93
2023/05/05 05:58:57;;;;;;;25.00;13.80;;;;;;;;;;2057358;28;20362;-94
2023/05/05 05:59:57;;;;;;;24.98;13.50;;;;;;;;;;2057017;28;20031;-93
2023/05/05 06:01:02;;;;;;;24.70;13.80;;;;;;;;;;2057634;28;20074;-93
2023/05/05 06:02:10;;;;;;;23.33;13.18;;;;;;;;;;2057086;28;20116;-91
2023/05/05 06:03:11;;;;;;;23.98;12.40;;;;;;;;;;2047769;29;20043;-92
2023/05/05 06:04:12;;;;;;;24.77;12.90;;;;;;;;;;2040136;29;20032;-92
2023/05/05 06:05:12;;;;;;;23.10;13.45;;;;;;;;;;2048309;29;20058;-94
2023/05/05 06:06:13;;;;;;;23.50;13.50;;;;;;;;;;2057313;28;20049;-91
2023/05/05 06:07:13;;;;;;;23.75;12.55;;;;;;;;;;2056350;28;20073;-91